sensor_id;sensor_type;location;lat;lon;timestamp;pressure;altitude;pressure_sealevel;temperature;humidity
64192;BME280;50497;50.720;-2.084;2023-07-31T00:01:24;103380.41;;;16.41;100.00
64192;BME280;50497;50.720;-2.084;2023-07-31T00:03:49;103361.59;;;16.38;100.00
64192;BME280;50497;50.720;-2.084;2023-07-31T00:06:14;103361.50;;;16.41;100.00
64192;BME280;50497;50.720;-2.084;2023-07-31T00:08:40;103343.56;;;16.38;100.00
64192;BME280;50497;50.720;-2.084;2023-07-31T00:11:05;103340.75;;;16.41;100.00
64192;BME280;50497;50.720;-2.084;2023-07-31T00:13:30;103334.41;;;16.44;100.00
64192;BME280;50497;50.720;-2.084;2023-07-31T00:15:56;103328.03;;;16.45;100.00
64192;BME280;50497;50.720;-2.084;2023-07-31T00:18:21;103303.78;;;16.43;100.00
64192;BME280;50497;50.720;-2.084;2023-07-31T00:20:47;103279.56;;;16.40;100.00
64192;BME280;50497;50.720;-2.084;2023-07-31T00:23:12;103277.59;;;16.46;100.00
64192;BME280;50497;50.720;-2.084;2023-07-31T00:25:37;103288.28;;;16.50;100.00
64192;BME280;50497;50.720;-2.084;2023-07-31T00:28:03;103271.06;;;16.53;100.00
64192;BME280;50497;50.720;-2.084;2023-07-31T00:30:28;103246.00;;;16.48;100.00
64192;BME280;50497;50.720;-2.084;2023-07-31T00:32:54;103238.72;;;16.50;100.00
64192;BME280;50497;50.720;-2.084;2023-07-31T00:35:19;103228.75;;;16.52;100.00
64192;BME280;50497;50.720;-2.084;2023-07-31T00:37:44;103232.59;;;16.44;100.00
64192;BME280;50497;50.720;-2.084;2023-07-31T00:40:10;103245.91;;;16.51;100.00
64192;BME280;50497;50.720;-2.084;2023-07-31T00:42:35;103241.44;;;16.50;100.00
64192;BME280;50497;50.720;-2.084;2023-07-31T00:45:00;103255.66;;;16.55;100.00
64192;BME280;50497;50.720;-2.084;2023-07-31T00:47:26;103247.63;;;16.53;100.00
64192;BME280;50497;50.720;-2.084;2023-07-31T00:49:52;103234.97;;;16.55;100.00
64192;BME280;50497;50.720;-2.084;2023-07-31T00:52:18;103225.13;;;16.53;100.00
64192;BME280;50497;50.720;-2.084;2023-07-31T00:54:43;103221.41;;;16.57;100.00
64192;BME280;50497;50.720;-2.084;2023-07-31T00:57:09;103198.97;;;16.53;100.00
64192;BME280;50497;50.720;-2.084;2023-07-31T00:59:34;103177.16;;;16.59;100.00
64192;BME280;50497;50.720;-2.084;2023-07-31T01:02:00;103172.91;;;16.52;100.00
64192;BME280;50497;50.720;-2.084;2023-07-31T01:04:26;103155.00;;;16.48;100.00
64192;BME280;50497;50.720;-2.084;2023-07-31T01:12:02;103168.13;;;16.60;100.00
64192;BME280;50497;50.720;-2.084;2023-07-31T01:14:28;103181.53;;;16.63;100.00
64192;BME280;50497;50.720;-2.084;2023-07-31T01:16:54;103189.66;;;16.63;100.00
64192;BME280;50497;50.720;-2.084;2023-07-31T01:19:25;103185.09;;;16.64;100.00
64192;BME280;50497;50.720;-2.084;2023-07-31T01:22:06;103189.59;;;16.65;100.00
64192;BME280;50497;50.720;-2.084;2023-07-31T01:25:15;103168.91;;;16.64;100.00
64192;BME280;50497;50.720;-2.084;2023-07-31T01:27:53;103154.31;;;16.68;100.00
64192;BME280;50497;50.720;-2.084;2023-07-31T01:30:27;103154.38;;;16.67;100.00
64192;BME280;50497;50.720;-2.084;2023-07-31T01:32:54;103145.28;;;16.69;100.00
64192;BME280;50497;50.720;-2.084;2023-07-31T01:35:21;103139.00;;;16.69;100.00
64192;BME280;50497;50.720;-2.084;2023-07-31T01:37:46;103143.31;;;16.74;100.00
64192;BME280;50497;50.720;-2.084;2023-07-31T01:40:12;103136.06;;;16.75;100.00
64192;BME280;50497;50.720;-2.084;2023-07-31T01:42:37;103132.38;;;16.77;100.00
64192;BME280;50497;50.720;-2.084;2023-07-31T01:45:03;103118.97;;;16.74;100.00
64192;BME280;50497;50.720;-2.084;2023-07-31T01:47:29;103115.28;;;16.77;100.00
64192;BME280;50497;50.720;-2.084;2023-07-31T01:49:54;103107.00;;;16.81;100.00
64192;BME280;50497;50.720;-2.084;2023-07-31T01:52:19;103093.47;;;16.81;100.00
64192;BME280;50497;50.720;-2.084;2023-07-31T01:54:45;103097.13;;;16.80;100.00
64192;BME280;50497;50.720;-2.084;2023-07-31T01:57:10;103083.72;;;16.77;100.00
64192;BME280;50497;50.720;-2.084;2023-07-31T01:59:35;103073.88;;;16.75;100.00
64192;BME280;50497;50.720;-2.084;2023-07-31T02:02:00;103088.06;;;16.81;100.00
64192;BME280;50497;50.720;-2.084;2023-07-31T02:04:26;103091.84;;;16.77;100.00
64192;BME280;50497;50.720;-2.084;2023-07-31T02:06:52;103115.09;;;16.81;100.00
64192;BME280;50497;50.720;-2.084;2023-07-31T02:09:18;103115.25;;;16.78;100.00
64192;BME280;50497;50.720;-2.084;2023-07-31T02:11:43;103106.91;;;16.85;100.00
64192;BME280;50497;50.720;-2.084;2023-07-31T02:14:08;103115.94;;;16.85;100.00
64192;BME280;50497;50.720;-2.084;2023-07-31T02:16:34;103114.06;;;16.87;100.00
64192;BME280;50497;50.720;-2.084;2023-07-31T02:18:59;103102.28;;;16.88;100.00
64192;BME280;50497;50.720;-2.084;2023-07-31T02:21:25;103113.22;;;16.85;100.00
64192;BME280;50497;50.720;-2.084;2023-07-31T02:23:50;103124.75;;;16.90;100.00
64192;BME280;50497;50.720;-2.084;2023-07-31T02:26:15;103117.63;;;16.88;100.00
64192;BME280;50497;50.720;-2.084;2023-07-31T02:28:41;103112.94;;;16.93;100.00
64192;BME280;50497;50.720;-2.084;2023-07-31T02:31:08;103102.16;;;16.91;100.00
64192;BME280;50497;50.720;-2.084;2023-07-31T02:33:33;103096.75;;;16.91;100.00
64192;BME280;50497;50.720;-2.084;2023-07-31T02:35:59;103090.53;;;16.89;100.00
64192;BME280;50497;50.720;-2.084;2023-07-31T02:38:24;103081.50;;;16.90;100.00
64192;BME280;50497;50.720;-2.084;2023-07-31T02:40:49;103085.13;;;16.89;100.00
64192;BME280;50497;50.720;-2.084;2023-07-31T02:43:15;103082.25;;;16.94;100.00
64192;BME280;50497;50.720;-2.084;2023-07-31T02:45:40;103064.25;;;16.93;100.00
64192;BME280;50497;50.720;-2.084;2023-07-31T02:48:05;103072.38;;;16.93;100.00
64192;BME280;50497;50.720;-2.084;2023-07-31T02:50:31;103059.81;;;16.92;100.00
64192;BME280;50497;50.720;-2.084;2023-07-31T02:52:57;103055.09;;;16.97;100.00
64192;BME280;50497;50.720;-2.084;2023-07-31T02:55:22;103036.22;;;16.95;100.00
64192;BME280;50497;50.720;-2.084;2023-07-31T02:57:48;103016.78;;;16.86;100.00
64192;BME280;50497;50.720;-2.084;2023-07-31T03:00:13;103024.41;;;16.98;100.00
64192;BME280;50497;50.720;-2.084;2023-07-31T03:02:38;103026.13;;;17.01;100.00
64192;BME280;50497;50.720;-2.084;2023-07-31T03:05:04;103017.47;;;16.91;100.00
64192;BME280;50497;50.720;-2.084;2023-07-31T03:07:29;103002.72;;;16.99;100.00
64192;BME280;50497;50.720;-2.084;2023-07-31T03:09:55;102992.81;;;17.00;100.00
64192;BME280;50497;50.720;-2.084;2023-07-31T03:12:21;102975.63;;;17.01;100.00
64192;BME280;50497;50.720;-2.084;2023-07-31T03:14:46;102965.56;;;17.05;100.00
64192;BME280;50497;50.720;-2.084;2023-07-31T03:17:11;102948.41;;;17.06;100.00
64192;BME280;50497;50.720;-2.084;2023-07-31T03:19:37;102905.19;;;17.04;100.00
64192;BME280;50497;50.720;-2.084;2023-07-31T03:22:02;102877.31;;;17.02;100.00
64192;BME280;50497;50.720;-2.084;2023-07-31T03:24:28;102853.00;;;17.02;100.00
64192;BME280;50497;50.720;-2.084;2023-07-31T03:26:53;102826.06;;;16.99;100.00
64192;BME280;50497;50.720;-2.084;2023-07-31T03:29:19;102819.78;;;16.98;100.00
64192;BME280;50497;50.720;-2.084;2023-07-31T03:31:44;102806.09;;;17.02;100.00
64192;BME280;50497;50.720;-2.084;2023-07-31T03:34:10;102799.84;;;17.01;100.00
64192;BME280;50497;50.720;-2.084;2023-07-31T03:36:35;102788.22;;;16.99;100.00
64192;BME280;50497;50.720;-2.084;2023-07-31T03:39:00;102771.06;;;17.00;100.00
64192;BME280;50497;50.720;-2.084;2023-07-31T03:41:26;102757.38;;;17.03;100.00
64192;BME280;50497;50.720;-2.084;2023-07-31T03:43:51;102726.75;;;17.03;100.00
64192;BME280;50497;50.720;-2.084;2023-07-31T03:46:22;102715.31;;;16.96;100.00
64192;BME280;50497;50.720;-2.084;2023-07-31T03:48:48;102691.72;;;16.99;100.00
64192;BME280;50497;50.720;-2.084;2023-07-31T03:51:13;102680.19;;;16.96;100.00
64192;BME280;50497;50.720;-2.084;2023-07-31T03:53:38;102688.97;;;17.01;100.00
64192;BME280;50497;50.720;-2.084;2023-07-31T03:56:04;102675.44;;;17.01;100.00
64192;BME280;50497;50.720;-2.084;2023-07-31T03:58:30;102671.88;;;17.01;100.00
64192;BME280;50497;50.720;-2.084;2023-07-31T04:00:55;102663.81;;;16.99;100.00
64192;BME280;50497;50.720;-2.084;2023-07-31T04:03:20;102630.16;;;16.86;100.00
64192;BME280;50497;50.720;-2.084;2023-07-31T04:05:46;102643.25;;;16.95;100.00
64192;BME280;50497;50.720;-2.084;2023-07-31T04:08:11;102642.19;;;16.99;100.00
64192;BME280;50497;50.720;-2.084;2023-07-31T04:10:36;102636.78;;;16.99;100.00
64192;BME280;50497;50.720;-2.084;2023-07-31T04:13:02;102626.91;;;16.98;100.00
64192;BME280;50497;50.720;-2.084;2023-07-31T04:15:27;102617.06;;;16.97;100.00
64192;BME280;50497;50.720;-2.084;2023-07-31T04:17:52;102607.97;;;16.98;100.00
64192;BME280;50497;50.720;-2.084;2023-07-31T04:20:18;102597.53;;;16.90;100.00
64192;BME280;50497;50.720;-2.084;2023-07-31T04:22:43;102618.66;;;17.01;100.00
64192;BME280;50497;50.720;-2.084;2023-07-31T04:25:08;102615.16;;;16.99;100.00
64192;BME280;50497;50.720;-2.084;2023-07-31T04:27:34;102610.47;;;17.03;100.00
64192;BME280;50497;50.720;-2.084;2023-07-31T04:29:59;102626.63;;;17.04;100.00
64192;BME280;50497;50.720;-2.084;2023-07-31T04:32:24;102632.91;;;17.05;100.00
64192;BME280;50497;50.720;-2.084;2023-07-31T04:34:50;102648.28;;;17.04;100.00
64192;BME280;50497;50.720;-2.084;2023-07-31T04:37:15;102656.25;;;17.07;100.00
64192;BME280;50497;50.720;-2.084;2023-07-31T04:39:40;102652.75;;;17.05;100.00
64192;BME280;50497;50.720;-2.084;2023-07-31T04:42:06;102660.84;;;17.05;100.00
64192;BME280;50497;50.720;-2.084;2023-07-31T04:44:31;102685.25;;;17.04;100.00
64192;BME280;50497;50.720;-2.084;2023-07-31T04:46:57;102687.91;;;17.05;100.00
64192;BME280;50497;50.720;-2.084;2023-07-31T04:49:22;102700.31;;;17.09;100.00
64192;BME280;50497;50.720;-2.084;2023-07-31T04:51:47;102699.53;;;17.07;100.00
64192;BME280;50497;50.720;-2.084;2023-07-31T04:54:13;102700.44;;;17.06;100.00
64192;BME280;50497;50.720;-2.084;2023-07-31T04:56:40;102703.28;;;17.03;100.00
64192;BME280;50497;50.720;-2.084;2023-07-31T04:59:06;102705.00;;;17.06;100.00
64192;BME280;50497;50.720;-2.084;2023-07-31T05:01:31;102719.50;;;17.03;100.00
64192;BME280;50497;50.720;-2.084;2023-07-31T05:03:56;102715.13;;;17.01;100.00
64192;BME280;50497;50.720;-2.084;2023-07-31T05:06:22;102735.91;;;17.00;100.00
64192;BME280;50497;50.720;-2.084;2023-07-31T05:08:47;102749.25;;;17.03;100.00
64192;BME280;50497;50.720;-2.084;2023-07-31T05:11:12;102765.34;;;17.06;100.00
64192;BME280;50497;50.720;-2.084;2023-07-31T05:13:38;102783.34;;;17.07;100.00
64192;BME280;50497;50.720;-2.084;2023-07-31T05:16:03;102793.38;;;17.05;100.00
64192;BME280;50497;50.720;-2.084;2023-07-31T05:18:28;102797.81;;;17.06;100.00
64192;BME280;50497;50.720;-2.084;2023-07-31T05:20:54;102810.41;;;17.07;100.00
64192;BME280;50497;50.720;-2.084;2023-07-31T05:23:19;102819.44;;;17.06;100.00
64192;BME280;50497;50.720;-2.084;2023-07-31T05:25:45;102842.78;;;17.09;100.00
64192;BME280;50497;50.720;-2.084;2023-07-31T05:28:12;102841.41;;;16.98;100.00
64192;BME280;50497;50.720;-2.084;2023-07-31T05:30:37;102859.19;;;17.04;100.00
64192;BME280;50497;50.720;-2.084;2023-07-31T05:33:02;102879.69;;;17.10;100.00
64192;BME280;50497;50.720;-2.084;2023-07-31T05:35:28;102881.72;;;17.05;100.00
64192;BME280;50497;50.720;-2.084;2023-07-31T05:37:53;102879.06;;;17.03;100.00
64192;BME280;50497;50.720;-2.084;2023-07-31T05:40:19;102893.44;;;17.05;100.00
64192;BME280;50497;50.720;-2.084;2023-07-31T05:42:44;102879.78;;;17.08;100.00
64192;BME280;50497;50.720;-2.084;2023-07-31T05:45:09;102884.25;;;17.09;100.00
64192;BME280;50497;50.720;-2.084;2023-07-31T05:47:35;102861.91;;;17.04;100.00
64192;BME280;50497;50.720;-2.084;2023-07-31T05:50:01;102862.91;;;17.02;100.00
64192;BME280;50497;50.720;-2.084;2023-07-31T05:52:26;102878.00;;;17.07;100.00
64192;BME280;50497;50.720;-2.084;2023-07-31T05:54:54;102869.03;;;17.07;100.00
64192;BME280;50497;50.720;-2.084;2023-07-31T05:57:19;102877.22;;;17.05;100.00
64192;BME280;50497;50.720;-2.084;2023-07-31T05:59:44;102889.75;;;17.06;100.00
64192;BME280;50497;50.720;-2.084;2023-07-31T06:02:10;102872.53;;;17.09;100.00
64192;BME280;50497;50.720;-2.084;2023-07-31T06:04:35;102882.41;;;17.10;100.00
64192;BME280;50497;50.720;-2.084;2023-07-31T06:07:00;102880.78;;;17.06;100.00
64192;BME280;50497;50.720;-2.084;2023-07-31T06:09:26;102885.25;;;17.07;100.00
64192;BME280;50497;50.720;-2.084;2023-07-31T06:11:51;102888.03;;;17.05;100.00
64192;BME280;50497;50.720;-2.084;2023-07-31T06:14:17;102896.72;;;17.13;100.00
64192;BME280;50497;50.720;-2.084;2023-07-31T06:16:43;102885.31;;;17.05;100.00
64192;BME280;50497;50.720;-2.084;2023-07-31T06:19:09;102893.31;;;17.08;100.00
64192;BME280;50497;50.720;-2.084;2023-07-31T06:21:34;102887.97;;;17.07;100.00
64192;BME280;50497;50.720;-2.084;2023-07-31T06:24:02;102915.75;;;17.10;100.00
64192;BME280;50497;50.720;-2.084;2023-07-31T06:26:28;102908.00;;;17.01;100.00
64192;BME280;50497;50.720;-2.084;2023-07-31T06:28:53;102917.66;;;17.08;100.00
64192;BME280;50497;50.720;-2.084;2023-07-31T06:31:19;102917.78;;;17.05;100.00
64192;BME280;50497;50.720;-2.084;2023-07-31T06:33:48;102904.25;;;17.05;100.00
64192;BME280;50497;50.720;-2.084;2023-07-31T06:36:13;102915.75;;;17.10;100.00
64192;BME280;50497;50.720;-2.084;2023-07-31T06:38:38;102916.69;;;17.09;100.00
64192;BME280;50497;50.720;-2.084;2023-07-31T06:41:04;102918.34;;;17.13;100.00
64192;BME280;50497;50.720;-2.084;2023-07-31T06:43:29;102890.78;;;17.04;100.00
64192;BME280;50497;50.720;-2.084;2023-07-31T06:45:54;102908.22;;;17.18;100.00
64192;BME280;50497;50.720;-2.084;2023-07-31T06:48:20;102888.72;;;17.10;100.00
64192;BME280;50497;50.720;-2.084;2023-07-31T06:50:45;102884.81;;;17.17;100.00
64192;BME280;50497;50.720;-2.084;2023-07-31T06:53:11;102869.38;;;17.20;100.00
64192;BME280;50497;50.720;-2.084;2023-07-31T06:55:36;102840.66;;;17.17;100.00
64192;BME280;50497;50.720;-2.084;2023-07-31T06:58:01;102822.66;;;17.16;100.00
64192;BME280;50497;50.720;-2.084;2023-07-31T07:00:27;102813.41;;;17.22;100.00
64192;BME280;50497;50.720;-2.084;2023-07-31T07:02:52;102782.38;;;17.30;100.00
64192;BME280;50497;50.720;-2.084;2023-07-31T07:05:18;102755.38;;;17.29;100.00
64192;BME280;50497;50.720;-2.084;2023-07-31T07:07:44;102694.28;;;17.23;100.00
64192;BME280;50497;50.720;-2.084;2023-07-31T07:10:11;102637.22;;;17.29;100.00
64192;BME280;50497;50.720;-2.084;2023-07-31T07:12:36;102607.84;;;17.41;100.00
64192;BME280;50497;50.720;-2.084;2023-07-31T07:15:02;102572.47;;;17.45;100.00
64192;BME280;50497;50.720;-2.084;2023-07-31T07:17:31;102529.16;;;17.45;100.00
64192;BME280;50497;50.720;-2.084;2023-07-31T07:19:56;102479.66;;;17.43;100.00
64192;BME280;50497;50.720;-2.084;2023-07-31T07:22:22;102467.22;;;17.39;100.00
64192;BME280;50497;50.720;-2.084;2023-07-31T07:24:48;102443.81;;;17.38;100.00
64192;BME280;50497;50.720;-2.084;2023-07-31T07:27:13;102449.44;;;17.52;100.00
64192;BME280;50497;50.720;-2.084;2023-07-31T07:29:39;102437.88;;;17.49;100.00
64192;BME280;50497;50.720;-2.084;2023-07-31T07:32:04;102435.47;;;17.43;100.00
64192;BME280;50497;50.720;-2.084;2023-07-31T07:34:30;102469.72;;;17.44;100.00
64192;BME280;50497;50.720;-2.084;2023-07-31T07:36:55;102522.28;;;17.38;100.00
64192;BME280;50497;50.720;-2.084;2023-07-31T07:39:21;102633.72;;;17.46;100.00
64192;BME280;50497;50.720;-2.084;2023-07-31T07:41:46;102677.63;;;17.53;100.00
64192;BME280;50497;50.720;-2.084;2023-07-31T07:44:13;102708.97;;;17.59;100.00
64192;BME280;50497;50.720;-2.084;2023-07-31T07:46:38;102717.34;;;17.52;100.00
64192;BME280;50497;50.720;-2.084;2023-07-31T07:49:03;102735.00;;;17.61;100.00
64192;BME280;50497;50.720;-2.084;2023-07-31T07:51:29;102738.38;;;17.66;100.00
64192;BME280;50497;50.720;-2.084;2023-07-31T07:53:56;102717.75;;;17.64;100.00
64192;BME280;50497;50.720;-2.084;2023-07-31T07:56:23;102657.41;;;17.62;100.00
64192;BME280;50497;50.720;-2.084;2023-07-31T07:58:49;102654.97;;;17.55;100.00
64192;BME280;50497;50.720;-2.084;2023-07-31T08:01:15;102652.25;;;17.74;100.00
64192;BME280;50497;50.720;-2.084;2023-07-31T08:03:41;102618.97;;;17.72;100.00
64192;BME280;50497;50.720;-2.084;2023-07-31T08:06:06;102563.97;;;17.72;100.00
64192;BME280;50497;50.720;-2.084;2023-07-31T08:08:34;102433.28;;;17.87;100.00
64192;BME280;50497;50.720;-2.084;2023-07-31T08:10:59;102294.75;;;17.78;100.00
64192;BME280;50497;50.720;-2.084;2023-07-31T08:13:25;102195.78;;;17.89;100.00
64192;BME280;50497;50.720;-2.084;2023-07-31T08:15:50;102145.75;;;17.97;100.00
64192;BME280;50497;50.720;-2.084;2023-07-31T08:18:15;102097.97;;;17.96;100.00
64192;BME280;50497;50.720;-2.084;2023-07-31T08:20:42;102025.13;;;17.91;100.00
64192;BME280;50497;50.720;-2.084;2023-07-31T08:23:08;101953.75;;;17.76;100.00
64192;BME280;50497;50.720;-2.084;2023-07-31T08:25:35;101902.84;;;17.83;100.00
64192;BME280;50497;50.720;-2.084;2023-07-31T08:28:01;101911.50;;;17.89;100.00
64192;BME280;50497;50.720;-2.084;2023-07-31T08:30:26;101879.63;;;17.95;100.00
64192;BME280;50497;50.720;-2.084;2023-07-31T08:32:51;101810.00;;;17.97;100.00
64192;BME280;50497;50.720;-2.084;2023-07-31T08:35:17;101779.22;;;17.98;100.00
64192;BME280;50497;50.720;-2.084;2023-07-31T08:37:42;101727.78;;;17.98;100.00
64192;BME280;50497;50.720;-2.084;2023-07-31T08:40:08;101673.34;;;18.02;100.00
64192;BME280;50497;50.720;-2.084;2023-07-31T08:42:33;101656.44;;;17.99;100.00
64192;BME280;50497;50.720;-2.084;2023-07-31T08:44:59;101612.25;;;17.98;100.00
64192;BME280;50497;50.720;-2.084;2023-07-31T08:47:26;101568.66;;;17.88;100.00
64192;BME280;50497;50.720;-2.084;2023-07-31T08:49:52;101556.63;;;18.07;100.00
64192;BME280;50497;50.720;-2.084;2023-07-31T08:52:18;101531.78;;;18.00;100.00
64192;BME280;50497;50.720;-2.084;2023-07-31T08:54:44;101516.81;;;17.95;100.00
64192;BME280;50497;50.720;-2.084;2023-07-31T08:57:09;101546.91;;;17.90;100.00
64192;BME280;50497;50.720;-2.084;2023-07-31T08:59:36;101549.00;;;17.99;100.00
64192;BME280;50497;50.720;-2.084;2023-07-31T09:02:08;101524.53;;;18.01;100.00
64192;BME280;50497;50.720;-2.084;2023-07-31T09:04:33;101488.56;;;17.99;100.00
64192;BME280;50497;50.720;-2.084;2023-07-31T09:07:03;101477.03;;;18.22;100.00
64192;BME280;50497;50.720;-2.084;2023-07-31T09:09:32;101445.94;;;18.15;100.00
64192;BME280;50497;50.720;-2.084;2023-07-31T09:11:58;101393.06;;;17.97;100.00
64192;BME280;50497;50.720;-2.084;2023-07-31T09:14:27;101374.78;;;18.13;100.00
64192;BME280;50497;50.720;-2.084;2023-07-31T09:16:54;101339.38;;;18.16;100.00
64192;BME280;50497;50.720;-2.084;2023-07-31T09:19:28;101287.13;;;18.40;100.00
64192;BME280;50497;50.720;-2.084;2023-07-31T09:21:54;101247.03;;;18.45;100.00
64192;BME280;50497;50.720;-2.084;2023-07-31T09:24:30;101193.38;;;18.37;100.00
64192;BME280;50497;50.720;-2.084;2023-07-31T09:26:57;101160.75;;;18.39;100.00
64192;BME280;50497;50.720;-2.084;2023-07-31T09:29:24;101153.75;;;18.36;100.00
64192;BME280;50497;50.720;-2.084;2023-07-31T09:31:50;101140.00;;;18.26;100.00
64192;BME280;50497;50.720;-2.084;2023-07-31T09:34:15;101116.22;;;18.43;100.00
64192;BME280;50497;50.720;-2.084;2023-07-31T09:36:49;101119.19;;;18.27;100.00
64192;BME280;50497;50.720;-2.084;2023-07-31T09:39:19;101089.75;;;18.22;100.00
64192;BME280;50497;50.720;-2.084;2023-07-31T09:41:53;101079.66;;;18.24;100.00
64192;BME280;50497;50.720;-2.084;2023-07-31T09:44:19;101075.59;;;18.43;100.00
64192;BME280;50497;50.720;-2.084;2023-07-31T09:46:45;101063.59;;;18.10;100.00
64192;BME280;50497;50.720;-2.084;2023-07-31T09:49:11;101042.34;;;18.17;100.00
64192;BME280;50497;50.720;-2.084;2023-07-31T09:51:38;101026.09;;;18.17;100.00
64192;BME280;50497;50.720;-2.084;2023-07-31T09:56:42;100986.66;;;17.88;100.00
64192;BME280;50497;50.720;-2.084;2023-07-31T09:59:13;100986.06;;;17.96;100.00
64192;BME280;50497;50.720;-2.084;2023-07-31T10:01:40;100951.25;;;17.91;100.00
64192;BME280;50497;50.720;-2.084;2023-07-31T10:04:08;100945.88;;;18.03;100.00
64192;BME280;50497;50.720;-2.084;2023-07-31T10:06:34;100931.03;;;18.08;100.00
64192;BME280;50497;50.720;-2.084;2023-07-31T10:09:02;100938.09;;;18.22;100.00
64192;BME280;50497;50.720;-2.084;2023-07-31T10:11:30;100935.31;;;18.11;100.00
64192;BME280;50497;50.720;-2.084;2023-07-31T10:13:56;100944.78;;;18.05;100.00
64192;BME280;50497;50.720;-2.084;2023-07-31T10:16:22;100949.53;;;18.15;100.00
64192;BME280;50497;50.720;-2.084;2023-07-31T10:18:47;100932.34;;;18.03;100.00
64192;BME280;50497;50.720;-2.084;2023-07-31T10:21:15;100927.19;;;18.00;100.00
64192;BME280;50497;50.720;-2.084;2023-07-31T10:23:41;100901.88;;;18.12;100.00
64192;BME280;50497;50.720;-2.084;2023-07-31T10:26:07;100898.41;;;18.10;100.00
64192;BME280;50497;50.720;-2.084;2023-07-31T10:28:33;100897.41;;;18.11;100.00
64192;BME280;50497;50.720;-2.084;2023-07-31T10:31:01;100903.22;;;18.18;100.00
64192;BME280;50497;50.720;-2.084;2023-07-31T10:33:27;100901.91;;;18.23;100.00
64192;BME280;50497;50.720;-2.084;2023-07-31T10:36:12;100900.66;;;18.27;100.00
64192;BME280;50497;50.720;-2.084;2023-07-31T10:38:38;100902.59;;;18.14;100.00
64192;BME280;50497;50.720;-2.084;2023-07-31T10:41:10;100904.63;;;18.23;100.00
64192;BME280;50497;50.720;-2.084;2023-07-31T10:43:38;100894.47;;;18.14;100.00
64192;BME280;50497;50.720;-2.084;2023-07-31T10:46:08;100882.38;;;18.42;100.00
64192;BME280;50497;50.720;-2.084;2023-07-31T10:48:35;100880.81;;;18.74;100.00
64192;BME280;50497;50.720;-2.084;2023-07-31T10:51:09;100869.34;;;18.70;100.00
64192;BME280;50497;50.720;-2.084;2023-07-31T10:53:36;100878.19;;;18.61;100.00
64192;BME280;50497;50.720;-2.084;2023-07-31T10:56:03;100872.69;;;18.51;100.00
64192;BME280;50497;50.720;-2.084;2023-07-31T10:58:30;100874.63;;;18.49;100.00
64192;BME280;50497;50.720;-2.084;2023-07-31T11:00:59;100895.09;;;18.64;100.00
64192;BME280;50497;50.720;-2.084;2023-07-31T11:03:44;100894.81;;;18.45;100.00
64192;BME280;50497;50.720;-2.084;2023-07-31T11:06:11;100866.50;;;18.60;100.00
64192;BME280;50497;50.720;-2.084;2023-07-31T11:08:43;100887.53;;;18.45;100.00
64192;BME280;50497;50.720;-2.084;2023-07-31T11:11:16;100905.25;;;18.27;100.00
64192;BME280;50497;50.720;-2.084;2023-07-31T11:13:44;100919.34;;;18.08;100.00
64192;BME280;50497;50.720;-2.084;2023-07-31T11:16:11;100905.41;;;18.01;100.00
64192;BME280;50497;50.720;-2.084;2023-07-31T11:18:39;100905.00;;;17.95;100.00
64192;BME280;50497;50.720;-2.084;2023-07-31T11:21:05;100907.00;;;18.04;100.00
64192;BME280;50497;50.720;-2.084;2023-07-31T11:23:30;100909.03;;;18.13;100.00
64192;BME280;50497;50.720;-2.084;2023-07-31T11:25:59;100918.34;;;18.09;100.00
64192;BME280;50497;50.720;-2.084;2023-07-31T11:28:25;100938.09;;;18.22;100.00
64192;BME280;50497;50.720;-2.084;2023-07-31T11:30:51;100936.25;;;18.23;100.00
64192;BME280;50497;50.720;-2.084;2023-07-31T11:33:17;100947.50;;;18.41;100.00
64192;BME280;50497;50.720;-2.084;2023-07-31T11:35:47;100932.97;;;18.42;100.00
64192;BME280;50497;50.720;-2.084;2023-07-31T11:38:31;100933.38;;;18.49;100.00
64192;BME280;50497;50.720;-2.084;2023-07-31T11:41:02;100917.72;;;18.52;100.00
64192;BME280;50497;50.720;-2.084;2023-07-31T11:43:28;100918.63;;;18.53;100.00
64192;BME280;50497;50.720;-2.084;2023-07-31T11:45:54;100911.31;;;18.42;100.00
64192;BME280;50497;50.720;-2.084;2023-07-31T11:48:27;100904.41;;;18.49;100.00
64192;BME280;50497;50.720;-2.084;2023-07-31T11:50:55;100888.31;;;18.59;100.00
64192;BME280;50497;50.720;-2.084;2023-07-31T11:53:32;100900.94;;;18.36;100.00
64192;BME280;50497;50.720;-2.084;2023-07-31T11:55:59;100895.75;;;18.33;100.00
64192;BME280;50497;50.720;-2.084;2023-07-31T11:58:26;100899.34;;;18.33;100.00
64192;BME280;50497;50.720;-2.084;2023-07-31T12:00:53;100872.66;;;18.40;100.00
64192;BME280;50497;50.720;-2.084;2023-07-31T12:03:19;100875.66;;;18.59;100.00
64192;BME280;50497;50.720;-2.084;2023-07-31T12:05:46;100885.81;;;18.33;100.00
64192;BME280;50497;50.720;-2.084;2023-07-31T12:08:12;100878.47;;;18.58;100.00
64192;BME280;50497;50.720;-2.084;2023-07-31T12:10:37;100891.41;;;18.65;100.00
64192;BME280;50497;50.720;-2.084;2023-07-31T12:13:05;100882.63;;;18.51;100.00
64192;BME280;50497;50.720;-2.084;2023-07-31T12:15:39;100894.34;;;18.51;100.00
64192;BME280;50497;50.720;-2.084;2023-07-31T12:18:16;100879.66;;;18.42;100.00
64192;BME280;50497;50.720;-2.084;2023-07-31T12:20:48;100874.38;;;18.52;100.00
64192;BME280;50497;50.720;-2.084;2023-07-31T12:23:18;100898.03;;;18.50;100.00
64192;BME280;50497;50.720;-2.084;2023-07-31T12:25:44;100895.69;;;18.57;100.00
64192;BME280;50497;50.720;-2.084;2023-07-31T12:28:10;100917.47;;;18.44;100.00
64192;BME280;50497;50.720;-2.084;2023-07-31T12:30:40;100914.03;;;18.42;100.00
64192;BME280;50497;50.720;-2.084;2023-07-31T12:33:13;100912.94;;;18.56;100.00
64192;BME280;50497;50.720;-2.084;2023-07-31T12:35:45;100915.09;;;18.39;100.00